createdAt,value
2024-01-20T00:00:30.673Z,4.9
2024-01-20T00:05:18.733Z,3.5
2024-01-20T00:10:24.662Z,2.9
2024-01-20T00:15:30.609Z,3.0
2024-01-20T00:20:19.840Z,3.1
2024-01-20T00:25:25.712Z,2.7
2024-01-20T00:30:31.775Z,2.6
2024-01-20T00:35:20.958Z,2.6
2024-01-20T00:40:26.896Z,2.6
2024-01-20T00:45:32.862Z,2.6
2024-01-20T00:50:21.974Z,2.6
2024-01-20T00:55:27.749Z,2.6
2024-01-20T01:00:33.822Z,2.7
2024-01-20T01:05:22.840Z,2.8
2024-01-20T01:10:28.855Z,2.9
2024-01-20T01:15:17.933Z,2.7
2024-01-20T01:20:24.068Z,2.5
2024-01-20T01:25:29.957Z,3.0
2024-01-20T01:30:21.758Z,3.3
2024-01-20T01:35:25.296Z,3.0
2024-01-20T01:40:31.278Z,2.8
2024-01-20T01:45:20.393Z,3.0
2024-01-20T01:50:26.250Z,3.1
2024-01-20T01:55:32.021Z,3.4
2024-01-20T02:00:21.186Z,3.6
2024-01-20T02:05:27.112Z,3.4
2024-01-20T02:10:33.346Z,3.4
2024-01-20T02:15:22.395Z,3.4
2024-01-20T02:20:28.646Z,3.4
2024-01-20T02:25:34.470Z,2.9
2024-01-20T02:30:23.502Z,2.6
2024-01-20T02:35:29.557Z,2.6
2024-01-20T02:40:18.553Z,2.6
2024-01-20T02:45:24.698Z,2.7
2024-01-20T02:50:29.777Z,2.8
2024-01-20T02:55:18.745Z,2.9
2024-01-20T03:00:24.904Z,3.0
2024-01-20T03:05:31.059Z,3.1
2024-01-20T03:10:20.102Z,3.2
2024-01-20T03:15:26.339Z,3.7
2024-01-20T03:20:32.177Z,4.0
2024-01-20T03:25:21.220Z,3.7
2024-01-20T03:30:27.330Z,3.4
2024-01-20T03:35:33.373Z,3.3
2024-01-20T03:40:22.443Z,3.3
2024-01-20T03:45:28.750Z,3.0
2024-01-20T03:50:34.301Z,2.7
2024-01-20T03:55:24.153Z,3.7
2024-01-20T04:00:29.391Z,4.5
2024-01-20T04:05:23.560Z,3.9
2024-01-20T04:10:23.525Z,3.5
2024-01-20T04:15:29.751Z,3.3
2024-01-20T04:20:18.764Z,3.2
2024-01-20T04:25:24.761Z,3.4
2024-01-20T04:30:31.043Z,3.6
2024-01-20T04:35:19.793Z,3.6
2024-01-20T04:40:25.923Z,3.7
2024-01-20T04:45:32.035Z,3.5
2024-01-20T04:50:20.741Z,3.2
2024-01-20T04:55:26.836Z,3.3
2024-01-20T05:00:32.947Z,3.4
2024-01-20T05:05:22.144Z,3.2
2024-01-20T05:10:28.132Z,2.9
2024-01-20T05:15:34.588Z,2.8
2024-01-20T05:20:23.274Z,2.7
2024-01-20T05:25:29.229Z,2.8
2024-01-20T05:30:18.492Z,2.8
2024-01-20T05:35:24.364Z,2.9
2024-01-20T05:40:30.387Z,2.9
2024-01-20T05:45:19.610Z,3.2
2024-01-20T05:50:25.429Z,3.6
2024-01-20T05:55:31.133Z,3.7
2024-01-20T06:00:20.366Z,3.8
2024-01-20T06:05:25.422Z,3.8
2024-01-20T06:10:31.459Z,3.7
2024-01-20T06:15:20.708Z,4.0
2024-01-20T06:20:26.621Z,4.4
2024-01-20T06:25:32.681Z,4.0
2024-01-20T06:30:21.840Z,3.5
2024-01-20T06:35:27.804Z,3.6
2024-01-20T06:40:33.802Z,4.0
2024-01-20T06:45:22.931Z,4.0
2024-01-20T06:50:28.618Z,4.0
2024-01-20T06:55:17.723Z,3.8
2024-01-20T07:00:23.896Z,3.4
2024-01-20T07:05:30.840Z,4.3
2024-01-20T07:10:19.095Z,5.6
2024-01-20T07:15:25.297Z,5.2
2024-01-20T07:20:31.308Z,4.6
2024-01-20T07:25:20.295Z,4.7
2024-01-20T07:30:26.447Z,4.9
2024-01-20T07:35:32.441Z,4.8
2024-01-20T07:40:21.421Z,4.6
2024-01-20T07:45:27.632Z,5.4
2024-01-20T07:50:33.197Z,6.5
2024-01-20T07:55:22.068Z,6.0
2024-01-20T08:00:28.333Z,5.2
2024-01-20T08:05:35.607Z,5.2
2024-01-20T08:10:22.319Z,5.1
2024-01-20T08:15:28.489Z,5.6
2024-01-20T08:20:17.474Z,6.4
2024-01-20T08:25:23.527Z,7.1
2024-01-20T08:30:29.671Z,8.4
2024-01-20T08:35:18.530Z,7.2
2024-01-20T08:40:24.755Z,5.4
2024-01-20T08:45:30.889Z,5.6
2024-01-20T08:50:19.568Z,5.9
2024-01-20T08:55:25.587Z,5.9
2024-01-20T09:00:31.696Z,5.8
2024-01-20T09:05:20.933Z,5.7
2024-01-20T09:10:27.046Z,5.4
2024-01-20T09:15:33.040Z,5.7
2024-01-20T09:20:21.938Z,6.4
2024-01-20T09:25:28.153Z,6.1
2024-01-20T09:30:34.130Z,5.4
2024-01-20T09:35:23.182Z,5.6
2024-01-20T09:40:29.188Z,5.8
2024-01-20T09:45:18.379Z,5.5
2024-01-20T09:50:24.039Z,5.1
2024-01-20T09:55:30.015Z,5.3
2024-01-20T10:00:19.307Z,5.8
2024-01-20T10:05:24.341Z,5.8
2024-01-20T10:10:30.358Z,5.7
2024-01-20T10:15:19.469Z,5.7
2024-01-20T10:20:25.494Z,5.8
2024-01-20T10:25:31.498Z,5.9
2024-01-20T10:30:21.614Z,6.1
2024-01-20T10:35:26.825Z,6.3
2024-01-20T10:40:32.683Z,6.8
2024-01-20T10:45:21.914Z,6.7
2024-01-20T10:50:27.376Z,6.5
2024-01-20T10:55:33.481Z,6.5
2024-01-20T11:00:22.517Z,6.4
2024-01-20T11:05:29.031Z,6.4
2024-01-20T11:10:18.132Z,6.5
2024-01-20T11:15:24.157Z,6.7
2024-01-20T11:20:30.407Z,7.0
2024-01-20T11:25:19.245Z,6.9
2024-01-20T11:30:25.321Z,6.7
2024-01-20T11:35:31.348Z,6.8
2024-01-20T11:40:20.397Z,6.9
2024-01-20T11:45:26.479Z,6.9
2024-01-20T11:50:31.834Z,6.7
2024-01-20T11:55:20.846Z,6.7
2024-01-20T12:00:27.016Z,6.7
2024-01-20T12:05:33.223Z,6.7
2024-01-20T12:10:22.206Z,6.6
2024-01-20T12:15:28.198Z,7.2
2024-01-20T12:20:34.461Z,9.3
2024-01-20T12:25:23.153Z,9.0
2024-01-20T12:30:29.414Z,8.1
2024-01-20T12:35:18.401Z,7.9
2024-01-20T12:40:24.620Z,7.4
2024-01-20T12:45:30.679Z,7.3
2024-01-20T12:50:19.296Z,7.1
2024-01-20T12:55:25.326Z,7.0
2024-01-20T13:00:31.524Z,6.6
2024-01-20T13:05:20.857Z,6.6
2024-01-20T13:10:26.691Z,6.6
2024-01-20T13:15:32.952Z,6.6
2024-01-20T13:20:21.765Z,6.4
2024-01-20T13:25:29.745Z,6.4
2024-01-20T13:30:33.904Z,6.3
2024-01-20T13:35:22.912Z,6.3
2024-01-20T13:40:29.070Z,6.4
2024-01-20T13:45:18.234Z,6.4
2024-01-20T13:50:23.826Z,6.2
2024-01-20T13:55:29.746Z,6.2
2024-01-20T14:00:20.288Z,6.0
2024-01-20T14:05:25.068Z,6.4
2024-01-20T14:10:31.102Z,8.0
2024-01-20T14:15:20.259Z,8.3
2024-01-20T14:20:26.252Z,9.7
2024-01-20T14:25:32.242Z,8.8
2024-01-20T14:30:21.389Z,5.4
2024-01-20T14:35:27.529Z,5.7
2024-01-20T14:40:33.521Z,7.1
2024-01-20T14:45:22.545Z,7.0
2024-01-20T14:50:27.982Z,6.4
2024-01-20T14:55:33.949Z,6.3
2024-01-20T15:00:22.960Z,5.8
2024-01-20T15:05:32.046Z,5.8
2024-01-20T15:10:17.360Z,6.3
2024-01-20T15:15:23.545Z,6.3
2024-01-20T15:20:29.449Z,5.9
2024-01-20T15:25:18.555Z,5.9
2024-01-20T15:30:24.702Z,5.8
2024-01-20T15:35:30.732Z,5.7
2024-01-20T15:40:20.039Z,4.4
2024-01-20T15:45:26.002Z,4.4
2024-01-20T15:50:31.243Z,4.5
2024-01-20T15:55:20.359Z,4.4
2024-01-20T16:00:26.493Z,3.8
2024-01-20T16:05:32.648Z,3.9
2024-01-20T16:10:21.657Z,4.5
2024-01-20T16:15:27.845Z,4.4
2024-01-20T16:20:33.757Z,3.6
2024-01-20T16:25:22.782Z,3.6
2024-01-20T16:30:28.846Z,3.1
2024-01-20T16:35:17.870Z,3.2
2024-01-20T16:40:24.016Z,4.1
2024-01-20T16:45:30.186Z,4.1
2024-01-20T16:50:18.887Z,6.5
2024-01-20T16:55:24.774Z,6.5
2024-01-20T17:00:30.760Z,4.7
2024-01-20T17:05:20.141Z,4.9
2024-01-20T17:10:26.892Z,6.3
2024-01-20T17:15:32.162Z,6.3
2024-01-20T17:20:21.390Z,4.0
2024-01-20T17:25:27.323Z,4.0
2024-01-20T17:30:33.393Z,3.3
2024-01-20T17:35:22.456Z,3.3
2024-01-20T17:40:28.449Z,3.1
2024-01-20T17:45:34.558Z,3.1
2024-01-20T17:50:23.179Z,4.9
2024-01-20T17:55:29.266Z,4.9
2024-01-20T18:00:18.377Z,8.7
2024-01-20T18:05:23.709Z,8.7
2024-01-20T18:10:29.496Z,4.4
2024-01-20T18:15:18.617Z,4.4
2024-01-20T18:20:24.674Z,3.5
2024-01-20T18:25:30.720Z,3.5
2024-01-20T18:30:19.746Z,3.5
2024-01-20T18:35:25.776Z,3.5
2024-01-20T18:40:31.898Z,3.6
2024-01-20T18:45:21.102Z,3.6
2024-01-20T18:50:26.790Z,3.6
2024-01-20T18:55:32.756Z,3.6
2024-01-20T19:00:21.919Z,6.1
2024-01-20T19:05:27.454Z,6.1
2024-01-20T19:10:33.474Z,3.9
2024-01-20T19:15:22.595Z,3.9
2024-01-20T19:20:28.636Z,4.4
2024-01-20T19:25:17.532Z,4.4
2024-01-20T19:30:23.711Z,4.0
2024-01-20T19:35:29.708Z,4.0
2024-01-20T19:40:18.923Z,4.6
2024-01-20T19:45:24.989Z,4.6
2024-01-20T19:50:31.296Z,9.2
2024-01-20T19:55:20.296Z,9.2
2024-01-20T20:00:26.422Z,6.7
2024-01-20T20:05:31.516Z,6.7
2024-01-20T20:10:20.469Z,7.5
2024-01-20T20:15:26.632Z,7.5
2024-01-20T20:20:36.686Z,5.3
2024-01-20T20:25:21.764Z,5.1
2024-01-20T20:30:28.725Z,8.4
2024-01-20T20:35:33.809Z,8.8
2024-01-20T20:40:22.797Z,13.3
2024-01-20T20:45:28.876Z,13.3
2024-01-20T20:50:18.099Z,10.0
2024-01-20T20:55:24.321Z,9.7
2024-01-20T21:00:30.088Z,7.9
2024-01-20T21:05:19.074Z,7.7
2024-01-20T21:10:25.016Z,11.2
2024-01-20T21:15:31.325Z,11.2
2024-01-20T21:20:20.455Z,6.3
2024-01-20T21:25:26.216Z,5.8
2024-01-20T21:30:32.506Z,8.3
2024-01-20T21:35:21.440Z,8.6
2024-01-20T21:40:27.505Z,10.7
2024-01-20T21:45:33.674Z,11.0
2024-01-20T21:50:22.288Z,9.7
2024-01-20T21:55:28.443Z,9.6
2024-01-20T22:00:34.465Z,8.5
2024-01-20T22:05:22.727Z,8.4
2024-01-20T22:10:28.655Z,8.3
2024-01-20T22:15:17.809Z,8.2
2024-01-20T22:20:23.859Z,8.8
2024-01-20T22:25:29.912Z,8.8
2024-01-20T22:30:19.082Z,7.8
2024-01-20T22:35:25.008Z,7.7
2024-01-20T22:40:31.062Z,10.0
2024-01-20T22:45:20.195Z,10.2
2024-01-20T22:50:25.805Z,7.3
2024-01-20T22:55:31.840Z,6.9
2024-01-20T23:00:21.079Z,6.4
2024-01-20T23:05:27.450Z,6.3
2024-01-20T23:10:33.140Z,5.6
2024-01-20T23:15:22.430Z,5.6
2024-01-20T23:20:28.519Z,5.6
2024-01-20T23:25:34.499Z,5.6
2024-01-20T23:30:23.539Z,5.6
2024-01-20T23:35:29.544Z,5.5
2024-01-20T23:40:18.705Z,6.0
2024-01-20T23:45:24.850Z,6.0
2024-01-20T23:50:30.128Z,4.9
2024-01-20T23:55:19.312Z,4.6
